Time;durP1;ratioP1;P1;durP2;ratioP2;P2;SDS_P1;SDS_P2;PMS_P1;PMS_P2;Temp;Humidity;BMP_temperature;BMP_pressure;BME280_temperature;BME280_humidity;BME280_pressure;Samples;Min_cycle;Max_cycle;Signal;HPM_P1;HPM_P2
2023/12/18 15:37:22;;;;;;;;;;;3.70;99.90;;;;;;4988417;28;2314481;-96
2023/12/18 15:39:48;;;;;;;;;;;3.70;99.90;;;;;;5045547;28;19913;-96
2023/12/18 15:42:13;;;;;;;;;;;3.80;99.90;;;;;;5041754;28;19919;-92
2023/12/18 15:45:17;;;;;;;;;;;3.90;99.90;;;;;;5078090;28;19897;-96
2023/12/18 15:50:38;;;;;;;;;;;4.10;99.90;;;;;;5024456;28;20409;-96
2023/12/18 15:53:04;;;;;;;;;;;4.20;99.90;;;;;;5014550;28;19913;-96
2023/12/18 15:55:29;;;;;;;;;;;4.30;99.90;;;;;;5010927;28;19960;-91
2023/12/18 15:57:55;;;;;;;;;;;4.30;99.90;;;;;;5010351;28;19917;-92
2023/12/18 16:00:21;;;;;;;;;;;4.40;99.90;;;;;;5008841;28;19937;-91
2023/12/18 16:02:46;;;;;;;;;;;4.50;99.90;;;;;;4993625;28;19914;-92
2023/12/18 16:05:12;;;;;;;;;;;4.50;99.90;;;;;;4989707;28;19914;-93
2023/12/18 16:07:38;;;;;;;;;;;4.60;99.90;;;;;;4991630;28;19910;-94
2023/12/18 16:10:05;;;;;;;;;;;4.60;99.90;;;;;;4992865;28;19993;-93
2023/12/18 16:12:30;;;;;;;;;;;4.70;99.90;;;;;;4994562;28;20007;-92
2023/12/18 16:14:56;;;;;;;;;;;4.70;99.90;;;;;;4994625;28;19913;-93
2023/12/18 16:17:21;;;;;;;;;;;4.80;99.90;;;;;;5009305;28;19910;-92
2023/12/18 16:19:47;;;;;;;;;;;4.80;99.90;;;;;;4978753;28;19910;-91
2023/12/18 16:22:12;;;;;;;;;;;4.80;99.90;;;;;;4975331;28;19910;-92
2023/12/18 16:24:38;;;;;;;;;;;4.90;99.90;;;;;;4974901;28;20359;-91
2023/12/18 16:27:06;;;;;;;;;;;4.80;99.90;;;;;;4994848;28;19957;-95
2023/12/18 16:29:38;;;;;;;;;;;4.90;99.90;;;;;;4976629;28;19910;-94
2023/12/18 16:32:06;;;;;;;;;;;4.90;99.90;;;;;;4976034;28;20005;-94
2023/12/18 16:34:33;;;;;;;;;;;4.90;99.90;;;;;;4975685;28;19914;-95
2023/12/18 16:37:02;;;;;;;;;;;5.00;99.90;;;;;;4976041;28;20260;-94
2023/12/18 16:39:27;;;;;;;;;;;5.00;99.90;;;;;;4975668;28;20255;-96
2023/12/18 16:41:53;;;;;;;;;;;5.00;99.90;;;;;;4994807;28;19914;-95
2023/12/18 16:44:18;;;;;;;;;;;5.00;99.90;;;;;;4994861;28;19936;-93
2023/12/18 16:46:56;;;;;;;;;;;5.00;99.90;;;;;;4992405;28;19913;-96
2023/12/18 16:49:22;;;;;;;;;;;5.00;99.90;;;;;;4985508;28;19928;-93
2023/12/18 16:51:48;;;;;;;;;;;5.00;99.90;;;;;;4980326;28;20000;-95
2023/12/18 16:54:14;;;;;;;;;;;5.00;99.90;;;;;;4980838;28;19960;-95
2023/12/18 16:56:39;;;;;;;;;;;5.00;99.90;;;;;;4979788;28;20345;-93
2023/12/18 16:59:05;;;;;;;;;;;5.00;99.90;;;;;;4978113;28;19916;-94
2023/12/18 17:01:31;;;;;;;;;;;5.00;99.90;;;;;;4980009;28;19929;-94
2023/12/18 17:03:56;;;;;;;;;;;5.00;99.90;;;;;;4981289;28;19910;-95
2023/12/18 17:06:22;;;;;;;;;;;5.00;99.90;;;;;;4983982;28;19922;-95
2023/12/18 17:08:47;;;;;;;;;;;5.00;99.90;;;;;;4981849;28;19914;-95
2023/12/18 17:11:13;;;;;;;;;;;5.00;99.90;;;;;;4980407;28;19910;-95
2023/12/18 17:13:39;;;;;;;;;;;5.00;99.90;;;;;;4980939;28;19921;-93
2023/12/18 17:16:05;;;;;;;;;;;5.00;99.90;;;;;;4978299;28;20359;-94
2023/12/18 17:18:31;;;;;;;;;;;5.10;99.90;;;;;;4979858;28;19920;-92
2023/12/18 17:20:56;;;;;;;;;;;5.10;99.90;;;;;;4985018;28;19910;-95
2023/12/18 19:49:43;;;;;;;;;;;5.40;99.90;;;;;;6309806;22;19903;-95
2023/12/18 19:52:09;;;;;;;;;;;5.40;99.90;;;;;;6288928;22;19919;-96
2023/12/18 19:57:18;;;;;;;;;;;5.50;99.90;;;;;;6281361;22;19972;-93
2023/12/18 19:59:43;;;;;;;;;;;5.50;99.90;;;;;;6287314;22;19961;-93
2023/12/18 20:02:08;;;;;;;;;;;5.50;99.90;;;;;;6284592;22;19907;-94
2023/12/18 20:04:34;;;;;;;;;;;5.50;99.90;;;;;;6285340;22;19903;-94
2023/12/18 20:07:00;;;;;;;;;;;5.50;99.90;;;;;;6285258;22;19910;-93
2023/12/18 20:09:26;;;;;;;;;;;5.40;99.90;;;;;;6259323;22;20233;-94
2023/12/18 20:11:52;;;;;;;;;;;5.40;99.90;;;;;;6284944;22;19903;-94
2023/12/18 20:14:17;;;;;;;;;;;5.40;99.90;;;;;;6285289;22;19903;-95
2023/12/18 20:16:43;;;;;;;;;;;5.40;99.90;;;;;;6285348;22;19965;-94
2023/12/18 20:19:08;;;;;;;;;;;5.40;99.90;;;;;;6285602;22;19911;-96
2023/12/18 20:21:34;;;;;;;;;;;5.30;99.90;;;;;;6285342;22;19903;-94
2023/12/18 20:24:02;;;;;;;;;;;5.30;99.90;;;;;;6285413;22;19934;-95
